Data for 05/13/2018

Time Sea-Level Adjusted Pressure Absolute Pressure Temperature Relative Humidity Dew Point   
(mb) (inHg) (mb) (inHg) (C) (F) (%) (C) (F)
00:05 1019 30.09 848 25.04 5.2 41.4 76 1.4 34.5
00:10 1019 30.09 848 25.04 5.2 41.4 76 1.3 34.4
00:15 1019 30.09 848 25.04 5.2 41.4 76 1.3 34.3
00:20 1019 30.09 848 25.04 5.3 41.5 75 1.2 34.2
00:25 1019 30.09 848 25.04 5.3 41.5 76 1.3 34.4
00:30 1019 30.09 848 25.04 5.2 41.3 77 1.4 34.5
00:35 1019 30.09 848 25.04 5.1 41.2 77 1.3 34.4
00:40 1019 30.09 848 25.04 5.1 41.1 77 1.4 34.5
00:45 1019 30.09 848 25.04 5 41 77 1.4 34.5
00:50 1019 30.09 848 25.04 5 41 77 1.4 34.4
00:55 1019 30.09 848 25.04 5 40.9 78 1.4 34.5
01:00 1019 30.09 848 25.04 5 41 77 1.3 34.4
01:05 1019 30.09 848 25.04 5 41 77 1.3 34.3
01:10 1019 30.09 848 25.04 5.1 41.1 76 1.2 34.2
01:15 1019 30.09 848 25.04 5.1 41.2 76 1.2 34.2
01:20 1019 30.09 848 25.04 5.1 41.2 76 1.3 34.3
01:25 1019 30.09 848 25.04 5 41 77 1.3 34.3
01:30 1019 30.09 848 25.04 5 41 76 1.2 34.2
01:35 1019 30.09 848 25.04 5.1 41.2 76 1.1 34
01:40 1019 30.09 848 25.04 5 41.1 76 1.3 34.3
01:45 1019 30.09 848 25.04 5 41 77 1.2 34.2
01:50 1019 30.09 848 25.04 4.9 40.8 78 1.3 34.4
01:55 1019 30.09 848 25.04 4.7 40.5 78 1.3 34.3
02:00 1018 30.06 848 25.04 4.7 40.4 78 1.2 34.2
02:05 1019 30.09 848 25.04 4.7 40.4 78 1.2 34.2
02:10 1019 30.09 848 25.04 4.7 40.4 79 1.3 34.3
02:15 1019 30.09 848 25.04 4.7 40.4 78 1.2 34.2
02:20 1019 30.09 848 25.04 4.8 40.6 78 1.2 34.2
02:25 1019 30.09 848 25.04 4.8 40.7 77 1.2 34.2
02:30 1019 30.09 848 25.04 4.9 40.8 77 1.2 34.2
02:35 1019 30.09 848 25.04 4.9 40.8 78 1.3 34.4
02:40 1018 30.06 848 25.04 4.8 40.6 78 1.3 34.3
02:45 1018 30.06 848 25.04 4.7 40.5 78 1.3 34.3
02:50 1018 30.06 848 25.04 4.7 40.4 79 1.3 34.3
02:55 1018 30.06 847 25.01 4.7 40.4 78 1.2 34.1
03:00 1018 30.06 847 25.01 4.7 40.4 77 1 33.9
03:05 1018 30.06 847 25.01 4.7 40.5 77 1 33.8
03:10 1018 30.06 847 25.01 4.8 40.6 76 1 33.7
03:15 1018 30.06 847 25.01 4.8 40.7 76 1 33.7
03:20 1018 30.06 847 25.01 4.7 40.5 77 1 33.7
03:25 1018 30.06 847 25.01 4.6 40.3 78 1 33.8
03:30 1018 30.06 847 25.01 4.5 40 78 0.9 33.6
03:35 1018 30.06 847 25.01 4.5 40 77 0.8 33.5
03:40 1018 30.06 847 25.01 4.5 40.1 78 0.9 33.7
03:45 1018 30.06 847 25.01 4.4 39.9 78 0.9 33.7
03:50 1018 30.06 847 25.01 4.2 39.6 80 1 33.8
03:55 1018 30.06 847 25.01 4.1 39.4 80 1 33.8
04:00 1018 30.06 847 25.01 4.2 39.5 79 0.9 33.7
04:05 1018 30.06 847 25.01 4.2 39.6 80 1 33.9
04:10 1018 30.06 848 25.04 4.3 39.7 79 1 33.8
04:15 1018 30.06 848 25.04 4.3 39.7 79 1.1 33.9
04:20 1018 30.06 847 25.01 4.3 39.7 79 1 33.9
04:25 1018 30.06 847 25.01 4.3 39.8 79 1.1 33.9
04:30 1018 30.06 847 25.01 4.4 40 78 1 33.8
04:35 1018 30.06 847 25.01 4.5 40.1 78 1 33.8
04:40 1018 30.06 847 25.01 4.6 40.3 77 1 33.8
04:45 1018 30.06 847 25.01 4.7 40.4 77 1 33.8
04:50 1018 30.06 847 25.01 4.7 40.5 77 1 33.8
04:55 1018 30.06 847 25.01 4.8 40.6 76 0.9 33.6
05:00 1018 30.06 847 25.01 4.9 40.7 77 1.1 33.9
05:05 1018 30.06 847 25.01 4.8 40.7 77 1.1 34
05:10 1018 30.06 847 25.01 4.8 40.6 77 1.1 34
05:15 1018 30.06 847 25.01 4.7 40.4 78 1.1 34
05:20 1018 30.06 847 25.01 4.7 40.4 78 1.1 33.9
05:25 1018 30.06 847 25.01 4.7 40.4 77 1.1 34
05:30 1018 30.06 847 25.01 4.7 40.5 77 1.1 33.9
05:35 1018 30.06 847 25.01 4.8 40.6 77 1.2 34.1
05:40 1018 30.06 847 25.01 4.8 40.6 78 1.2 34.2
05:45 1018 30.06 848 25.04 4.8 40.6 78 1.3 34.4
05:50 1018 30.06 847 25.01 4.8 40.7 79 1.5 34.7
05:55 1018 30.06 847 25.01 4.9 40.8 78 1.3 34.3
06:00 1018 30.06 847 25.01 5 41.1 78 1.4 34.6
06:05 1018 30.06 847 25.01 5.1 41.1 78 1.5 34.6
06:10 1018 30.06 847 25.01 5.1 41.1 78 1.5 34.7
06:15 1018 30.06 847 25.01 5 41 78 1.5 34.7
06:20 1018 30.06 847 25.01 5.1 41.1 78 1.5 34.7
06:25 1018 30.06 848 25.04 5.3 41.5 76 1.4 34.6
06:30 1018 30.06 848 25.04 5.4 41.7 76 1.5 34.7
06:35 1019 30.09 848 25.04 5.5 41.8 76 1.6 34.8
06:40 1019 30.09 848 25.04 5.3 41.5 77 1.6 34.8
06:45 1019 30.09 848 25.04 5.2 41.4 77 1.6 34.9
06:50 1019 30.09 848 25.04 5.3 41.6 77 1.6 34.9
06:55 1019 30.09 848 25.04 5.4 41.7 76 1.6 34.9
07:00 1019 30.09 848 25.04 5.5 41.9 76 1.6 35
07:05 1019 30.09 848 25.04 5.6 42 76 1.6 35
07:10 1019 30.09 848 25.04 5.6 42 77 1.8 35.3
07:15 1019 30.09 848 25.04 5.5 41.8 77 1.8 35.2
07:20 1019 30.09 848 25.04 5.4 41.7 77 1.7 35.1
07:25 1019 30.09 848 25.04 5.4 41.7 77 1.7 35.1
07:30 1019 30.09 848 25.04 5.4 41.8 78 1.8 35.3
07:35 1019 30.09 848 25.04 5.5 41.9 77 1.8 35.2
07:40 1019 30.09 848 25.04 5.6 42.1 76 1.7 35.1
07:45 1019 30.09 848 25.04 5.7 42.3 76 1.8 35.2
07:50 1019 30.09 848 25.04 5.9 42.6 75 1.8 35.3
07:55 1019 30.09 848 25.04 5.9 42.7 75 1.9 35.4
08:00 1019 30.09 848 25.04 6 42.8 74 1.8 35.2
08:05 1019 30.09 848 25.04 6.1 42.9 75 1.9 35.4
08:10 1019 30.09 848 25.04 6.2 43.1 73 1.8 35.2
08:15 1019 30.09 848 25.04 6.3 43.4 73 1.8 35.3
08:20 1019 30.09 848 25.04 6.4 43.6 73 1.9 35.4
08:25 1019 30.09 848 25.04 6.5 43.7 72 1.8 35.2
08:30 1019 30.09 848 25.04 6.5 43.8 73 2.1 35.7
08:35 1019 30.09 848 25.04 6.7 44 73 2.2 35.9
08:40 1019 30.09 848 25.04 6.9 44.5 71 2 35.7
08:45 1019 30.09 848 25.04 7.1 44.7 69 1.9 35.4
08:50 1019 30.09 848 25.04 7.4 45.4 67 1.7 35.1
08:55 1019 30.09 848 25.04 7.6 45.6 67 1.9 35.4
09:00 1019 30.09 848 25.04 7.9 46.3 64 1.7 35
09:05 1019 30.09 848 25.04 8.1 46.5 66 2.1 35.8
09:10 1019 30.09 849 25.07 8.2 46.7 64 1.7 35.1
09:15 1019 30.09 849 25.07 8.2 46.8 63 1.7 35.1
09:20 1019 30.09 849 25.07 8.4 47.1 63 1.8 35.2
09:25 1019 30.09 849 25.07 8.3 46.9 64 1.8 35.2
09:30 1019 30.09 849 25.07 8.6 47.5 62 1.7 35.1
09:35 1019 30.09 849 25.07 8.8 47.9 62 2 35.6
09:40 1019 30.09 849 25.07 8.9 48.1 62 2.1 35.8
09:45 1019 30.09 849 25.07 9.5 49 60 2.1 35.8
09:50 1019 30.09 849 25.07 9.9 49.9 58 2.2 36
09:55 1019 30.09 849 25.07 10.1 50.2 59 2.5 36.4
10:00 1019 30.09 849 25.07 9.8 49.6 57 1.8 35.2
10:05 1019 30.09 849 25.07 10.6 51.1 57 2.5 36.5
10:10 1019 30.09 849 25.07 10.2 50.3 61 3 37.3
10:15 1020 30.12 849 25.07 10.1 50.2 57 2.1 35.9
10:20 1020 30.12 849 25.07 10 50 60 2.6 36.8
10:25 1019 30.09 849 25.07 9.8 49.6 60 2.3 36.2
10:30 1019 30.09 849 25.07 10.3 50.5 59 2.5 36.5
10:35 1020 30.12 849 25.07 10.4 50.8 59 2.7 36.8
10:40 1020 30.12 849 25.07 10.5 50.9 56 2.2 36
10:45 1020 30.12 849 25.07 10.1 50.1 60 2.7 36.8
10:50 1020 30.12 849 25.07 9.9 49.7 60 2.4 36.4
10:55 1020 30.12 849 25.07 10.1 50.1 59 2.5 36.5
11:00 1020 30.12 849 25.07 10.2 50.4 59 2.7 36.8
11:05 1019 30.09 849 25.07 10.6 51 58 2.7 36.9
11:10 1019 30.09 849 25.07 11.1 51.9 57 2.9 37.3
11:15 1019 30.09 849 25.07 11 51.7 57 2.9 37.2
11:20 1020 30.12 849 25.07 11.4 52.6 55 2.6 36.7
11:25 1020 30.12 849 25.07 11.6 53 56 3.2 37.8
11:30 1020 30.12 849 25.07 11.6 53 55 3.1 37.5
11:35 1020 30.12 849 25.07 11.3 52.3 55 2.6 36.8
11:40 1020 30.12 849 25.07 11.8 53.2 54 2.8 37.1
11:45 1020 30.12 849 25.07 11.8 53.3 54 3 37.3
11:50 1020 30.12 849 25.07 11.8 53.2 53 2.6 36.7
11:55 1020 30.12 849 25.07 11.8 53.2 54 2.8 37.1
12:00 1020 30.12 849 25.07 12.2 53.9 54 3.3 38
12:05 1020 30.12 849 25.07 12.2 54 54 3.2 37.7
12:10 1020 30.12 849 25.07 12.3 54.2 53 3 37.4
12:15 1020 30.12 849 25.07 12.6 54.7 51 2.7 36.9
12:20 1020 30.12 849 25.07 12.6 54.6 51 2.8 37.1
12:25 1020 30.12 849 25.07 12.8 55 51 3 37.4
12:30 1020 30.12 849 25.07 12.4 54.4 52 2.8 37
12:35 1020 30.12 849 25.07 12.7 54.8 52 3.1 37.6
12:40 1020 30.12 849 25.07 12.7 54.9 52 3.2 37.8
12:45 1020 30.12 849 25.07 12.2 53.9 54 3.3 37.9
12:50 1020 30.12 849 25.07 13.1 55.6 50 2.9 37.2
12:55 1020 30.12 849 25.07 13.7 56.7 47 2.6 36.7
13:00 1020 30.12 849 25.07 13.5 56.2 49 2.9 37.3
13:05 1020 30.12 849 25.07 13.4 56.2 48 2.9 37.1
13:10 1020 30.12 849 25.07 13.2 55.7 51 3.3 38
13:15 1020 30.12 849 25.07 13 55.3 50 2.9 37.2
13:20 1020 30.12 849 25.07 13.8 56.8 47 2.8 37.1
13:25 1020 30.12 849 25.07 14.1 57.4 47 3.2 37.7
13:30 1020 30.12 849 25.07 14.3 57.8 46 3.1 37.6
13:35 1020 30.12 849 25.07 13.7 56.7 47 2.8 37.1
13:40 1020 30.12 849 25.07 14.8 58.6 43 2.5 36.4
13:45 1020 30.12 849 25.07 15.2 59.4 45 3.6 38.4
13:50 1020 30.12 849 25.07 14.5 58.1 48 3.7 38.6
13:55 1020 30.12 849 25.07 13.5 56.4 49 3 37.4
14:00 1020 30.12 849 25.07 13.6 56.4 48 2.8 37
14:05 1020 30.12 849 25.07 15 59.1 46 3.4 38.2
14:10 1020 30.12 849 25.07 15 59 44 2.9 37.1
14:15 1020 30.12 849 25.07 15.2 59.4 43 2.8 37.1
14:20 1020 30.12 849 25.07 15.4 59.8 46 3.9 39
14:25 1020 30.12 849 25.07 14.1 57.5 45 2.4 36.3
14:30 1020 30.12 849 25.07 14.8 58.7 44 2.9 37.2
14:35 1020 30.12 849 25.07 15.4 59.8 44 3.3 38
14:40 1020 30.12 849 25.07 15.6 60.1 44 3.4 38.1
14:45 1020 30.12 849 25.07 15.8 60.5 43 3.4 38.2
14:50 1020 30.12 849 25.07 15.7 60.2 42 2.8 37
14:55 1020 30.12 849 25.07 15.1 59.3 45 3.2 37.8
15:00 1020 30.12 849 25.07 15.4 59.7 45 3.5 38.3
15:05 1020 30.12 849 25.07 14.6 58.3 46 3.3 37.9
15:10 1020 30.12 849 25.07 15 59 43 2.7 36.9
15:15 1020 30.12 849 25.07 16.1 61.1 40 2.7 36.9
15:20 1020 30.12 849 25.07 15.6 60 42 2.8 37.1
15:25 1020 30.12 849 25.07 16.1 60.9 42 3.3 37.9
15:30 1020 30.12 849 25.07 15.8 60.4 44 3.5 38.4
15:35 1020 30.12 849 25.07 15.6 60 43 3.1 37.6
15:40 1020 30.12 849 25.07 15.6 60.1 43 3.3 37.9
15:45 1020 30.12 849 25.07 15.4 59.7 42 2.5 36.5
15:50 1020 30.12 849 25.07 15.3 59.5 43 2.9 37.2
15:55 1020 30.12 849 25.07 15.4 59.7 42 2.6 36.7
16:00 1020 30.12 849 25.07 15.4 59.7 41 2.5 36.5
16:05 1020 30.12 849 25.07 15.2 59.3 47 4.1 39.4
16:10 1020 30.12 849 25.07 15 59.1 46 3.7 38.7
16:15 1020 30.12 849 25.07 14.9 58.9 47 3.9 38.9
16:20 1020 30.12 849 25.07 13.9 57 50 3.8 38.8
16:25 1020 30.12 849 25.07 14 57.1 48 3.1 37.6
16:30 1020 30.12 849 25.07 13.7 56.6 49 3.4 38.1
16:35 1020 30.12 849 25.07 13.3 56 50 3.2 37.7
16:40 1020 30.12 849 25.07 13.7 56.6 48 3 37.4
16:45 1020 30.12 849 25.07 13.5 56.3 49 2.9 37.3
16:50 1020 30.12 849 25.07 13.4 56.2 48 2.8 37
16:55 1020 30.12 849 25.07 13.5 56.3 48 2.7 36.9
17:00 1020 30.12 849 25.07 13.3 55.9 49 2.7 36.9
17:05 1020 30.12 849 25.07 13.1 55.6 49 2.7 36.8
17:10 1020 30.12 849 25.07 12.9 55.2 50 2.7 36.9
17:15 1020 30.12 849 25.07 13.5 56.2 48 2.7 36.8
17:20 1020 30.12 849 25.07 13.6 56.5 47 2.6 36.7
17:25 1020 30.12 849 25.07 13.4 56.1 48 2.8 37
17:30 1020 30.12 849 25.07 13.6 56.4 48 2.8 37.1
17:35 1020 30.12 849 25.07 13.1 55.5 51 3.2 37.7
17:40 1020 30.12 850 25.1 12.7 54.9 51 2.9 37.3
17:45 1020 30.12 850 25.1 12.4 54.3 53 3 37.5
17:50 1020 30.12 850 25.1 12.3 54.1 52 2.8 37.1
17:55 1020 30.12 850 25.1 12.4 54.3 52 2.8 37
18:00 1020 30.12 850 25.1 12.4 54.3 53 3.1 37.5
18:05 1020 30.12 850 25.1 12.3 54.1 52 2.7 36.9
18:10 1020 30.12 850 25.1 12 53.6 52 2.5 36.4
18:15 1021 30.15 850 25.1 11.8 53.2 53 2.5 36.4
18:20 1021 30.15 850 25.1 11.9 53.4 53 2.6 36.6
18:25 1021 30.15 850 25.1 11.9 53.4 54 3 37.4
18:30 1021 30.15 850 25.1 11.7 53 54 2.8 37.1
18:35 1021 30.15 850 25.1 11.6 52.8 57 3.4 38.1
18:40 1021 30.15 850 25.1 11.2 52.2 57 3.1 37.6
18:45 1021 30.15 850 25.1 11.2 52.1 57 3.1 37.6
18:50 1021 30.15 850 25.1 11 51.8 58 3.1 37.5
18:55 1021 30.15 850 25.1 10.9 51.5 58 3 37.4
19:00 1021 30.15 850 25.1 11 51.8 59 3.2 37.8
19:05 1021 30.15 850 25.1 10.9 51.7 60 3.5 38.4
19:10 1021 30.15 850 25.1 11 51.7 60 3.6 38.5
19:15 1021 30.15 850 25.1 11 51.7 61 3.8 38.8
19:20 1021 30.15 850 25.1 11 51.8 61 3.8 38.8
19:25 1021 30.15 850 25.1 10.8 51.5 62 3.9 39
19:30 1021 30.15 850 25.1 10.7 51.3 62 3.9 39
19:35 1021 30.15 850 25.1 10.5 50.9 63 3.9 39
19:40 1021 30.15 850 25.1 10.5 51 63 3.9 39
19:45 1021 30.15 850 25.1 10.5 50.9 63 3.8 38.9
19:50 1021 30.15 850 25.1 10.5 50.8 64 4 39.2
19:55 1021 30.15 850 25.1 10.4 50.7 64 3.9 39
20:00 1021 30.15 850 25.1 10.4 50.7 64 3.9 39.1
20:05 1021 30.15 850 25.1 10.3 50.6 65 4 39.2
20:10 1021 30.15 850 25.1 10.3 50.6 65 4 39.2
20:15 1021 30.15 850 25.1 10.3 50.5 65 4.1 39.3
20:20 1021 30.15 850 25.1 10.3 50.5 66 4.2 39.5
20:25 1021 30.15 850 25.1 10.3 50.5 66 4.3 39.7
20:30 1021 30.15 851 25.13 10.3 50.5 66 4.3 39.8
20:35 1021 30.15 851 25.13 10.3 50.5 66 4.2 39.5
20:40 1021 30.15 851 25.13 10.2 50.3 66 4.2 39.6
20:45 1021 30.15 851 25.13 10.1 50.3 66 4.1 39.4
20:50 1021 30.15 851 25.13 10.1 50.1 67 4.2 39.5
20:55 1021 30.15 851 25.13 10 50.1 67 4.2 39.6
21:00 1021 30.15 851 25.13 10 50 67 4.2 39.6
21:05 1022 30.18 851 25.13 9.9 49.9 67 4.2 39.5
21:10 1022 30.18 851 25.13 9.9 49.9 67 4.2 39.6
21:15 1022 30.18 851 25.13 10 50 67 4.1 39.5
21:20 1022 30.18 851 25.13 10 49.9 67 4.2 39.6
21:25 1022 30.18 851 25.13 9.9 49.9 67 4.2 39.6
21:30 1022 30.18 851 25.13 10 49.9 67 4.3 39.7
21:35 1022 30.18 851 25.13 10 49.9 68 4.3 39.7
21:40 1022 30.18 851 25.13 10 50 68 4.3 39.8
21:45 1022 30.18 851 25.13 10 49.9 69 4.6 40.2
21:50 1022 30.18 851 25.13 9.7 49.4 70 4.4 40
21:55 1022 30.18 851 25.13 9.4 48.9 71 4.4 39.8
22:00 1022 30.18 851 25.13 9.2 48.6 71 4.2 39.6
22:05 1022 30.18 851 25.13 9.3 48.7 70 4 39.3
22:10 1022 30.18 851 25.13 9.3 48.8 70 4.1 39.5
22:15 1022 30.18 851 25.13 9.2 48.6 71 4.2 39.5
22:20 1022 30.18 851 25.13 9.2 48.5 71 4.2 39.5
22:25 1022 30.18 851 25.13 9.2 48.5 71 4.2 39.6
22:30 1022 30.18 851 25.13 9.2 48.5 71 4.3 39.7
22:35 1022 30.18 851 25.13 9 48.1 73 4.4 39.9
22:40 1022 30.18 851 25.13 8.9 47.9 74 4.5 40.1
22:45 1022 30.18 851 25.13 8.8 47.8 75 4.6 40.3
22:50 1022 30.18 851 25.13 8.8 47.8 75 4.6 40.4
22:55 1022 30.18 851 25.13 8.8 47.8 74 4.4 40
23:00 1022 30.18 851 25.13 8.7 47.7 75 4.5 40.1
23:05 1022 30.18 851 25.13 8.7 47.7 75 4.5 40.1
23:10 1022 30.18 851 25.13 8.6 47.5 76 4.6 40.3
23:15 1022 30.18 851 25.13 8.5 47.2 76 4.5 40.1
23:20 1022 30.18 851 25.13 8.5 47.2 76 4.5 40
23:25 1022 30.18 851 25.13 8.5 47.3 76 4.4 40
23:30 1022 30.18 851 25.13 8.6 47.5 72 3.8 38.8
23:35 1022 30.18 851 25.13 8.7 47.6 71 3.7 38.7
23:40 1022 30.18 851 25.13 8.7 47.6 69 3.4 38.1
23:45 1022 30.18 851 25.13 8.7 47.7 67 2.9 37.2
23:50 1022 30.18 851 25.13 8.8 47.8 63 2.1 35.8
23:55 1022 30.18 851 25.13 8.8 47.8 63 2.2 35.9
24:00 1022 30.18 851 25.13 8.7 47.7 63 2.2 35.9